Time;durP1;ratioP1;P1;durP2;ratioP2;P2;SDS_P1;SDS_P2;PMS_P1;PMS_P2;Temp;Humidity;BMP_temperature;BMP_pressure;BME280_temperature;BME280_humidity;BME280_pressure;Samples;Min_cycle;Max_cycle;Signal;HPM_P1;HPM_P2
2022/11/28 00:00:44;;;;;;;17.05;4.68;;;;;;;9.66;98.47;101891.28;5102820;28;20159;-70
2022/11/28 00:03:09;;;;;;;15.10;4.90;;;;;;;9.75;97.74;101892.16;5109352;28;20114;-70
2022/11/28 00:05:35;;;;;;;15.93;4.47;;;;;;;9.68;98.14;101880.41;5109142;28;20047;-70
2022/11/28 00:08:05;;;;;;;10.93;4.65;;;;;;;9.65;97.74;101868.97;5101857;28;20031;-70
2022/11/28 00:10:30;;;;;;;11.38;4.53;;;;;;;9.65;97.95;101879.72;5096753;28;20024;-69
2022/11/28 00:12:55;;;;;;;10.73;4.47;;;;;;;9.77;97.90;101890.97;5103755;28;20564;-70
2022/11/28 00:15:21;;;;;;;14.93;5.03;;;;;;;9.79;97.46;101894.31;5107501;28;20127;-69
2022/11/28 00:17:46;;;;;;;15.95;5.10;;;;;;;9.84;97.60;101886.63;5111396;28;20469;-70
2022/11/28 00:20:12;;;;;;;15.27;4.80;;;;;;;9.85;97.36;101877.53;5099824;28;20075;-71
2022/11/28 00:22:37;;;;;;;13.93;5.05;;;;;;;9.59;97.87;101853.50;5112050;28;20054;-69
2022/11/28 00:25:03;;;;;;;13.68;5.25;;;;;;;9.81;97.46;101881.56;5104143;28;20024;-70
2022/11/28 00:27:28;;;;;;;14.60;4.95;;;;;;;9.84;97.21;101881.25;5107302;28;20403;-70
2022/11/28 00:29:55;;;;;;;12.90;4.90;;;;;;;9.70;97.50;101870.31;5112845;28;20044;-70
2022/11/28 00:32:21;;;;;;;13.38;4.72;;;;;;;9.86;96.99;101879.22;5101608;28;20043;-70
2022/11/28 00:34:46;;;;;;;12.05;5.05;;;;;;;9.88;96.83;101877.19;5111655;28;20391;-69
2022/11/28 00:37:11;;;;;;;13.88;4.80;;;;;;;9.88;96.92;101877.19;5106783;28;20097;-69
2022/11/28 00:39:37;;;;;;;14.60;5.47;;;;;;;9.89;97.64;101878.88;5104272;28;20503;-69
2022/11/28 00:42:02;;;;;;;12.13;4.85;;;;;;;9.88;97.64;101871.00;5113224;28;20223;-69
2022/11/28 00:44:28;;;;;;;16.55;4.57;;;;;;;9.72;97.20;101841.41;5080072;28;20040;-69
2022/11/28 00:46:53;;;;;;;11.45;4.32;;;;;;;9.85;97.32;101869.47;5103047;28;20038;-70
2022/11/28 00:49:18;;;;;;;14.48;5.20;;;;;;;9.88;96.64;101876.38;5108347;28;20032;-69
2022/11/28 00:51:44;;;;;;;12.50;4.93;;;;;;;9.84;97.17;101865.09;5110637;28;20059;-69
2022/11/28 00:54:09;;;;;;;12.73;5.47;;;;;;;9.77;97.36;101853.34;5099987;28;20040;-70
2022/11/28 00:56:38;;;;;;;11.48;5.15;;;;;;;9.90;96.51;101863.59;5115115;28;20048;-70
2022/11/28 00:59:03;;;;;;;14.00;4.60;;;;;;;9.87;96.44;101862.09;5104926;28;20043;-70
2022/11/28 01:01:35;;;;;;;14.60;5.30;;;;;;;9.87;97.13;101863.94;5105233;28;20024;-70
2022/11/28 01:04:04;;;;;;;10.27;4.95;;;;;;;9.80;96.55;101866.47;5113639;28;20030;-70
2022/11/28 01:06:36;;;;;;;13.35;5.05;;;;;;;9.77;97.74;101863.28;5100298;28;20024;-70
2022/11/28 01:09:05;;;;;;;14.95;5.10;;;;;;;9.89;96.33;101873.50;5118397;28;20063;-71
2022/11/28 01:11:31;;;;;;;14.55;5.32;;;;;;;9.77;96.58;101856.03;5125097;28;20034;-70
2022/11/28 01:13:58;;;;;;;12.82;5.75;;;;;;;9.90;96.08;101858.22;5111470;28;20502;-70
2022/11/28 01:16:24;;;;;;;15.13;5.32;;;;;;;9.81;95.79;101849.31;5115898;28;20027;-70
2022/11/28 01:18:50;;;;;;;13.60;5.25;;;;;;;9.83;95.87;101857.19;5101606;28;20035;-70
2022/11/28 01:21:16;;;;;;;12.70;4.95;;;;;;;9.79;96.33;101856.69;5113154;28;20036;-70
2022/11/28 01:23:42;;;;;;;13.85;5.25;;;;;;;9.80;96.15;101850.34;5116364;28;20405;-70
2022/11/28 01:26:10;;;;;;;18.60;5.75;;;;;;;9.74;96.75;101859.06;5104068;28;20123;-70
2022/11/28 01:28:35;;;;;;;12.93;5.75;;;;;;;9.70;96.88;101859.53;5087756;28;20041;-70
2022/11/28 01:31:03;;;;;;;14.60;5.40;;;;;;;9.66;96.84;101848.28;5114601;28;20020;-70
2022/11/28 01:33:29;;;;;;;12.27;5.90;;;;;;;9.69;96.45;101847.13;5111418;28;20107;-70
2022/11/28 01:35:56;;;;;;;12.88;6.32;;;;;;;9.71;96.66;101845.97;5107334;28;20513;-70
2022/11/28 01:38:21;;;;;;;10.20;5.47;;;;;;;9.69;96.06;101829.16;5118949;28;20544;-70
2022/11/28 01:40:47;;;;;;;18.35;6.60;;;;;;;9.66;96.38;101837.53;5107596;28;20039;-70
2022/11/28 01:43:12;;;;;;;15.38;6.63;;;;;;;9.62;96.32;101830.84;5112116;28;20036;-70
2022/11/28 01:45:39;;;;;;;16.48;6.55;;;;;;;9.61;96.53;101840.75;5113659;28;20036;-70
2022/11/28 01:48:07;;;;;;;13.27;6.20;;;;;;;9.47;97.32;101835.19;5104737;28;20063;-70
2022/11/28 01:50:35;;;;;;;17.42;6.10;;;;;;;9.49;97.14;101822.44;5118934;28;20024;-71
2022/11/28 01:53:09;;;;;;;15.98;5.97;;;;;;;9.54;96.83;101831.69;5107376;28;20030;-70
2022/11/28 01:55:40;;;;;;;14.23;5.75;;;;;;;9.41;96.34;101817.91;5109796;27;20036;-70
2022/11/28 01:58:05;;;;;;;13.27;5.95;;;;;;;9.36;96.70;101812.19;5117239;28;20055;-71
2022/11/28 02:00:33;;;;;;;13.60;5.78;;;;;;;9.35;96.74;101799.75;5104739;28;20027;-70
2022/11/28 02:03:13;;;;;;;14.07;5.55;;;;;;;9.07;96.81;101821.53;5098340;28;20027;-70
2022/11/28 02:05:39;;;;;;;11.80;5.47;;;;;;;9.33;97.62;101813.34;5113337;28;20039;-70
2022/11/28 02:08:05;;;;;;;15.85;5.57;;;;;;;9.34;97.20;101820.41;5105996;28;20032;-70
2022/11/28 02:10:45;;;;;;;13.13;5.45;;;;;;;9.44;96.67;101825.63;5120690;28;20043;-70
2022/11/28 02:13:26;;;;;;;15.88;5.85;;;;;;;9.39;96.03;101815.38;5112769;28;20028;-70
2022/11/28 02:16:01;;;;;;;12.13;5.28;;;;;;;9.21;97.32;101795.88;5114815;28;20035;-70
2022/11/28 02:18:26;;;;;;;12.40;4.97;;;;;;;9.38;96.58;101805.63;5104604;28;20036;-70
2022/11/28 02:21:17;;;;;;;12.75;5.60;;;;;;;9.38;96.25;101805.63;5115115;28;20055;-70
2022/11/28 02:24:16;;;;;;;13.38;5.00;;;;;;;9.37;96.40;101801.28;5113807;28;20026;-70
2022/11/28 02:27:03;;;;;;;13.95;5.30;;;;;;;9.28;96.24;101798.75;5087633;28;20511;-70
2022/11/28 02:29:47;;;;;;;12.05;5.53;;;;;;;9.38;96.33;101802.94;5110310;28;20436;-70
2022/11/28 02:32:34;;;;;;;14.75;5.18;;;;;;;9.41;96.16;101810.69;5116810;28;20031;-70
2022/11/28 02:35:26;;;;;;;11.55;5.10;;;;;;;9.41;96.13;101802.63;5108281;28;20487;-70
2022/11/28 02:37:59;;;;;;;12.43;5.82;;;;;;;9.38;95.58;101799.44;5099149;28;20127;-70
2022/11/28 02:40:36;;;;;;;13.70;5.35;;;;;;;9.38;96.48;101802.94;5118066;28;20397;-70
2022/11/28 02:43:04;;;;;;;11.27;5.32;;;;;;;9.39;95.42;101790.34;5107918;28;20024;-70
2022/11/28 02:45:57;;;;;;;12.30;5.22;;;;;;;9.30;95.30;101802.94;5109306;28;20540;-70
2022/11/28 02:48:31;;;;;;;10.98;5.38;;;;;;;9.29;95.54;101790.50;5118413;28;20035;-70
2022/11/28 02:51:15;;;;;;;11.52;5.47;;;;;;;9.22;95.39;101791.34;5105968;28;20027;-70
2022/11/28 02:53:44;;;;;;;10.63;5.20;;;;;;;9.24;94.82;101774.06;5108933;28;20061;-70
2022/11/28 02:56:11;;;;;;;13.65;5.82;;;;;;;9.20;94.83;101791.50;5116299;28;20036;-70
2022/11/28 02:58:37;;;;;;;10.90;5.45;;;;;;;9.37;94.97;101798.59;5103697;28;20024;-71
2022/11/28 03:01:03;;;;;;;10.13;5.80;;;;;;;9.44;95.03;101797.91;5114586;28;20043;-70
2022/11/28 03:03:47;;;;;;;12.95;5.50;;;;;;;9.46;93.86;101793.22;5111982;28;20596;-70
2022/11/28 03:06:40;;;;;;;12.98;6.03;;;;;;;9.56;93.73;101797.41;5103285;28;20102;-70
2022/11/28 03:09:17;;;;;;;12.55;5.50;;;;;;;9.54;93.44;101793.22;5093576;28;20070;-70
2022/11/28 03:12:13;;;;;;;12.27;5.45;;;;;;;9.45;93.64;101792.38;5108356;28;20039;-70
2022/11/28 03:14:50;;;;;;;11.82;5.38;;;;;;;9.33;93.54;101786.47;5087592;28;20050;-70
2022/11/28 03:18:04;;;;;;;9.13;5.15;;;;;;;9.36;92.92;101783.47;5110565;28;20024;-70
2022/11/28 03:21:15;;;;;;;11.85;4.70;;;;;;;9.48;93.15;101783.16;5046578;28;20056;-70
2022/11/28 03:23:50;;;;;;;10.77;4.68;;;;;;;9.33;93.63;101778.41;5101348;28;20048;-71
2022/11/28 03:26:35;;;;;;;10.45;5.03;;;;;;;9.39;93.74;101785.81;5115263;28;20032;-70
2022/11/28 03:29:30;;;;;;;9.60;4.88;;;;;;;9.27;93.55;101780.94;5106485;28;20102;-70
2022/11/28 03:32:02;;;;;;;12.73;4.78;;;;;;;9.31;93.13;101783.16;5105683;28;20095;-70
2022/11/28 03:34:33;;;;;;;10.13;4.50;;;;;;;9.27;93.35;101768.38;5116144;28;20051;-70
2022/11/28 03:37:22;;;;;;;12.70;4.78;;;;;;;9.10;92.20;101763.97;5103292;28;20027;-70
2022/11/28 03:39:56;;;;;;;11.00;4.72;;;;;;;9.11;93.88;101762.97;5105243;28;20027;-70
2022/11/28 03:42:24;;;;;;;11.93;4.57;;;;;;;9.21;92.85;101782.47;5114669;28;20513;-71
2022/11/28 03:45:01;;;;;;;9.90;4.70;;;;;;;9.37;92.71;101792.34;5104552;28;20071;-70
2022/11/28 03:47:33;;;;;;;9.68;4.47;;;;;;;9.25;92.52;101756.13;5107791;28;20019;-70
2022/11/28 03:50:07;;;;;;;10.30;4.80;;;;;;;9.20;92.30;101748.53;5113922;28;20027;-70
2022/11/28 03:52:39;;;;;;;10.80;5.18;;;;;;;9.27;92.53;101778.25;5101339;28;20575;-70
2022/11/28 03:55:15;;;;;;;12.80;5.00;;;;;;;9.24;92.91;101781.28;5110690;28;20107;-70
2022/11/28 03:57:46;;;;;;;9.68;4.70;;;;;;;9.12;93.04;101786.97;5110865;28;20066;-70
2022/11/28 04:00:13;;;;;;;12.48;4.80;;;;;;;9.12;91.53;101783.44;5102238;28;20084;-70
2022/11/28 04:02:51;;;;;;;10.40;4.90;;;;;;;9.00;91.26;101752.53;5114774;28;20099;-70
2022/11/28 04:05:47;;;;;;;9.65;4.88;;;;;;;9.38;91.75;101794.91;5106602;28;20023;-70
2022/11/28 04:08:28;;;;;;;10.32;5.50;;;;;;;9.27;91.07;101786.31;5101770;28;20038;-70
2022/11/28 04:11:22;;;;;;;9.00;4.20;;;;;;;9.31;91.39;101785.81;5089461;28;20051;-70
2022/11/28 04:13:56;;;;;;;12.13;5.35;;;;;;;9.41;91.38;101797.25;5104286;27;20379;-70
2022/11/28 04:16:50;;;;;;;11.75;5.28;;;;;;;9.20;91.82;101788.81;5115413;28;20036;-70
2022/11/28 04:19:40;;;;;;;10.10;4.82;;;;;;;9.32;90.62;101795.56;5105294;28;20127;-70
2022/11/28 04:22:09;;;;;;;10.20;4.63;;;;;;;9.24;91.35;101795.56;5103647;28;20020;-70
2022/11/28 04:24:44;;;;;;;12.57;4.85;;;;;;;9.43;90.84;101797.06;5114759;28;20027;-70
2022/11/28 04:27:15;;;;;;;10.43;5.35;;;;;;;9.40;90.68;101800.09;5106852;28;20032;-70
2022/11/28 04:29:56;;;;;;;8.32;4.18;;;;;;;9.00;89.98;101799.03;5106438;28;20111;-70
2022/11/28 04:32:23;;;;;;;12.10;4.80;;;;;;;9.28;91.06;101796.06;5115601;28;20416;-70
2022/11/28 04:34:58;;;;;;;10.82;4.70;;;;;;;9.31;90.53;101799.25;5103854;28;20027;-71
2022/11/28 04:37:27;;;;;;;13.23;4.78;;;;;;;9.20;91.05;101802.25;5108003;28;20509;-70
2022/11/28 04:39:55;;;;;;;9.30;4.85;;;;;;;9.33;90.56;101791.84;5112361;28;20036;-70
2022/11/28 04:42:25;;;;;;;12.30;4.72;;;;;;;9.39;90.11;101787.66;5116766;28;20031;-70
2022/11/28 04:44:58;;;;;;;9.75;4.45;;;;;;;9.40;90.10;101783.97;5104077;28;20036;-70
2022/11/28 04:47:24;;;;;;;9.48;4.97;;;;;;;9.21;91.10;101797.75;5111698;28;20028;-70
2022/11/28 04:49:50;;;;;;;9.15;4.18;;;;;;;9.04;90.85;101768.19;5116065;28;20083;-70
2022/11/28 04:52:34;;;;;;;9.93;5.07;;;;;;;9.31;90.83;101809.16;5104725;28;20028;-70
2022/11/28 04:55:03;;;;;;;9.52;4.85;;;;;;;9.45;89.33;101805.81;5114997;28;20054;-70
2022/11/28 04:57:39;;;;;;;9.40;4.55;;;;;;;9.37;90.58;101808.47;5111602;28;20108;-70
2022/11/28 05:00:11;;;;;;;10.25;4.40;;;;;;;9.34;90.15;101803.47;5106094;28;20032;-70
2022/11/28 05:02:39;;;;;;;11.95;5.00;;;;;;;9.16;90.29;101798.22;5120309;28;20019;-70
2022/11/28 05:05:13;;;;;;;9.18;4.45;;;;;;;9.00;90.34;101763.28;5108390;28;20572;-70
2022/11/28 05:07:38;;;;;;;10.35;4.82;;;;;;;9.30;90.28;101808.31;5109992;28;20034;-70
2022/11/28 05:10:05;;;;;;;8.77;4.47;;;;;;;9.35;90.20;101805.97;5102862;28;20036;-71
2022/11/28 05:12:31;;;;;;;14.45;5.22;;;;;;;9.21;89.78;101777.09;5088174;28;20463;-70
2022/11/28 05:14:56;;;;;;;12.60;4.80;;;;;;;9.25;89.98;101791.03;5116628;28;20032;-69
2022/11/28 05:17:21;;;;;;;10.52;4.90;;;;;;;9.13;90.93;101804.75;5103451;28;20032;-69
2022/11/28 05:19:46;;;;;;;8.93;4.55;;;;;;;9.17;90.57;101781.09;5105222;28;20048;-70
2022/11/28 05:22:12;;;;;;;11.30;4.90;;;;;;;9.18;90.34;101783.63;5118239;28;20031;-73
2022/11/28 05:24:37;;;;;;;10.40;4.82;;;;;;;9.30;90.46;101807.47;5104736;28;20386;-70
2022/11/28 05:27:03;;;;;;;12.95;4.82;;;;;;;9.11;90.67;101781.78;5104392;28;20028;-72
2022/11/28 05:29:28;;;;;;;11.73;4.80;;;;;;;8.97;91.81;101807.41;5110345;28;20032;-71
2022/11/28 05:31:53;;;;;;;8.40;4.28;;;;;;;8.90;92.01;101807.22;5107103;28;20024;-71
2022/11/28 05:34:19;;;;;;;9.25;4.90;;;;;;;9.13;92.34;101814.66;5117338;28;20027;-71
2022/11/28 05:36:44;;;;;;;13.52;5.00;;;;;;;9.18;91.14;101804.28;5108930;28;20031;-71
2022/11/28 05:39:10;;;;;;;11.15;4.72;;;;;;;9.24;90.65;101803.63;5122239;28;20031;-72
2022/11/28 05:41:35;;;;;;;11.93;4.78;;;;;;;9.16;90.96;101784.78;5121523;28;20039;-71
2022/11/28 05:44:00;;;;;;;8.45;4.57;;;;;;;9.02;91.38;101777.41;5110058;28;20028;-72
2022/11/28 05:46:28;;;;;;;12.02;4.75;;;;;;;9.17;91.63;101797.19;5100341;28;20034;-71
2022/11/28 05:48:53;;;;;;;8.40;4.40;;;;;;;8.92;91.45;101769.50;5099581;28;20030;-70
2022/11/28 05:51:19;;;;;;;11.27;5.05;;;;;;;8.96;92.00;101796.84;5107792;28;20028;-71
2022/11/28 05:53:44;;;;;;;24.90;14.10;;;;;;;8.98;92.73;101800.22;5114425;28;20035;-71
2022/11/28 05:56:14;;;;;;;12.45;5.95;;;;;;;9.01;92.35;101799.88;5087289;28;20036;-71
2022/11/28 05:58:40;;;;;;;10.40;5.30;;;;;;;9.14;91.72;101795.72;5104409;28;20016;-71
2022/11/28 06:01:16;;;;;;;9.68;4.60;;;;;;;9.08;91.70;101808.97;5102048;28;20035;-70
2022/11/28 06:03:42;;;;;;;10.73;5.25;;;;;;;8.93;93.07;101814.94;5101545;28;20024;-70
2022/11/28 06:06:21;;;;;;;14.60;5.05;;;;;;;9.22;91.50;101811.00;5103277;28;20598;-70
2022/11/28 06:08:48;;;;;;;9.60;4.65;;;;;;;9.13;92.04;101809.28;5103814;28;20016;-71
2022/11/28 06:11:15;;;;;;;9.35;4.80;;;;;;;9.08;92.39;101808.97;5102060;28;20479;-71
2022/11/28 06:13:42;;;;;;;12.98;5.10;;;;;;;9.04;92.51;101794.16;5104375;28;20021;-72
2022/11/28 06:16:13;;;;;;;9.30;4.90;;;;;;;9.05;92.13;101806.59;5102766;28;20036;-71
2022/11/28 06:18:39;;;;;;;10.82;4.80;;;;;;;8.89;92.57;101784.06;5106409;28;20444;-71
2022/11/28 06:21:06;;;;;;;11.48;4.82;;;;;;;9.15;92.28;101807.28;5102613;28;20028;-71
2022/11/28 06:23:32;;;;;;;12.00;4.93;;;;;;;8.96;93.42;101804.91;5099211;28;20028;-72
2022/11/28 06:26:02;;;;;;;11.05;4.63;;;;;;;9.20;91.89;101813.00;5101420;28;20034;-71
2022/11/28 06:28:27;;;;;;;8.80;4.93;;;;;;;8.91;92.50;101794.66;5086549;28;20393;-71
2022/11/28 06:30:53;;;;;;;9.15;4.78;;;;;;;9.08;92.24;101811.63;5101240;28;20110;-71
2022/11/28 06:33:18;;;;;;;9.70;5.03;;;;;;;9.03;92.97;101811.28;5099904;28;20040;-71
2022/11/28 06:35:43;;;;;;;9.23;4.55;;;;;;;8.76;93.31;101820.44;5090326;28;20122;-71
2022/11/28 06:38:09;;;;;;;10.70;5.00;;;;;;;9.12;92.40;101834.47;5105004;28;20040;-71
2022/11/28 06:40:38;;;;;;;11.90;4.78;;;;;;;8.85;93.27;101814.94;5117036;28;20039;-71
2022/11/28 06:43:03;;;;;;;7.53;4.40;;;;;;;8.90;93.72;101823.31;5106428;28;20028;-71
2022/11/28 06:45:29;;;;;;;9.80;4.18;;;;;;;8.83;92.84;101822.28;5110129;28;20051;-72
2022/11/28 06:47:54;;;;;;;9.70;4.60;;;;;;;9.06;92.68;101819.00;5114385;28;20363;-71
2022/11/28 06:50:19;;;;;;;11.82;4.55;;;;;;;9.05;92.57;101826.22;5102362;28;20122;-71
2022/11/28 06:52:45;;;;;;;11.50;4.70;;;;;;;9.00;92.36;101803.56;5100165;28;20031;-72
2022/11/28 06:55:10;;;;;;;12.63;4.35;;;;;;;8.90;92.79;101817.94;5109064;28;20478;-72
2022/11/28 06:57:36;;;;;;;8.80;4.78;;;;;;;9.12;92.05;101826.41;5109400;28;20067;-71
2022/11/28 07:00:03;;;;;;;9.85;4.47;;;;;;;9.13;91.79;101828.91;5115904;28;20042;-71
2022/11/28 07:02:28;;;;;;;11.32;4.82;;;;;;;8.94;91.84;101822.00;5102634;28;20038;-72
2022/11/28 07:04:53;;;;;;;9.48;4.65;;;;;;;8.95;92.77;101830.91;5096586;28;20020;-71
2022/11/28 07:07:19;;;;;;;13.52;4.47;;;;;;;9.10;92.05;101836.47;5106396;28;20027;-72
2022/11/28 07:09:44;;;;;;;7.85;4.43;;;;;;;9.07;91.80;101831.41;5107609;28;20210;-71
2022/11/28 07:12:10;;;;;;;9.20;4.05;;;;;;;9.06;91.56;101832.44;5115800;28;20036;-71
2022/11/28 07:14:35;;;;;;;10.65;4.30;;;;;;;9.05;91.47;101828.91;5100592;28;20024;-71
2022/11/28 07:17:00;;;;;;;9.30;4.38;;;;;;;8.74;92.15;101823.28;5111026;28;20056;-71
2022/11/28 07:19:26;;;;;;;9.38;4.30;;;;;;;9.14;91.51;101840.53;5106350;28;20028;-71
2022/11/28 07:21:51;;;;;;;15.10;4.68;;;;;;;8.99;91.22;101818.81;5104491;28;20039;-72
2022/11/28 07:24:17;;;;;;;10.30;4.38;;;;;;;8.83;91.68;101816.94;5096261;28;20042;-71
2022/11/28 07:26:45;;;;;;;7.38;4.32;;;;;;;8.91;91.35;101824.19;5101293;28;20046;-71
2022/11/28 07:29:16;;;;;;;11.02;4.32;;;;;;;9.08;90.30;101819.69;5111712;28;20059;-71
2022/11/28 07:31:41;;;;;;;11.38;4.53;;;;;;;9.11;90.73;101841.69;5111852;28;20043;-71
2022/11/28 07:34:08;;;;;;;9.60;4.32;;;;;;;9.08;90.19;101854.59;5121438;27;20419;-71
2022/11/28 07:36:33;;;;;;;7.75;4.18;;;;;;;9.18;90.58;101847.25;5115331;28;20038;-72
2022/11/28 07:39:01;;;;;;;9.32;3.92;;;;;;;8.86;91.05;101821.97;5104745;28;20389;-71
2022/11/28 07:41:27;;;;;;;8.25;3.75;;;;;;;8.95;91.42;101847.00;5108564;28;20028;-71
2022/11/28 07:43:59;;;;;;;8.30;4.20;;;;;;;9.04;90.80;101853.22;5112505;28;20045;-71
2022/11/28 07:46:26;;;;;;;9.65;4.55;;;;;;;9.06;91.44;101870.03;5101259;28;20429;-71
2022/11/28 07:48:52;;;;;;;10.93;3.90;;;;;;;8.73;92.30;101845.75;5115229;28;20016;-71
2022/11/28 07:51:21;;;;;;;9.50;3.58;;;;;;;8.70;90.25;101787.03;5107968;28;20504;-71
2022/11/28 07:53:47;;;;;;;8.07;3.80;;;;;;;9.30;90.41;101882.66;5107744;28;20425;-71
2022/11/28 07:56:16;;;;;;;7.78;3.75;;;;;;;9.35;89.93;101883.03;5114535;28;20031;-72
2022/11/28 07:58:44;;;;;;;9.27;4.28;;;;;;;9.10;90.17;101884.78;5103581;28;20096;-71
2022/11/28 08:01:11;;;;;;;5.93;3.50;;;;;;;9.30;90.41;101879.97;5113017;28;20040;-71
2022/11/28 08:03:37;;;;;;;9.40;3.92;;;;;;;9.06;91.01;101883.44;5117721;28;20028;-72
2022/11/28 08:06:02;;;;;;;7.85;3.25;;;;;;;8.82;91.78;101873.47;5117252;28;20027;-72
2022/11/28 08:08:28;;;;;;;8.23;4.15;;;;;;;9.08;90.62;101878.75;5125931;28;20546;-71
2022/11/28 08:10:59;;;;;;;8.63;3.88;;;;;;;9.14;90.64;101862.84;5106924;28;20028;-71
2022/11/28 08:13:24;;;;;;;8.55;3.72;;;;;;;9.08;90.52;101884.97;5108175;28;20529;-71
2022/11/28 08:15:50;;;;;;;7.65;3.58;;;;;;;8.94;91.77;101882.91;5105708;28;20031;-71
2022/11/28 08:18:15;;;;;;;7.90;3.80;;;;;;;9.02;92.24;101872.19;5098804;28;20032;-73
2022/11/28 08:20:40;;;;;;;9.90;3.80;;;;;;;9.01;91.96;101883.94;5114756;28;20603;-72
2022/11/28 08:23:06;;;;;;;5.60;3.33;;;;;;;9.06;92.58;101884.28;5104567;28;20509;-72
2022/11/28 08:25:32;;;;;;;7.50;3.70;;;;;;;9.31;90.53;101879.84;5109275;28;20042;-71
2022/11/28 08:27:57;;;;;;;8.82;3.78;;;;;;;9.04;92.06;101866.66;5113249;28;20076;-71
2022/11/28 08:30:23;;;;;;;6.22;3.80;;;;;;;9.13;90.98;101863.81;5102791;28;20109;-71
2022/11/28 08:32:49;;;;;;;7.18;3.53;;;;;;;9.20;91.88;101882.81;5116512;28;20028;-71
2022/11/28 08:35:14;;;;;;;9.23;3.60;;;;;;;9.18;90.74;101874.09;5106204;28;20035;-71
2022/11/28 08:37:40;;;;;;;6.20;3.20;;;;;;;9.06;91.59;101851.22;5090088;28;20028;-71
2022/11/28 08:40:06;;;;;;;7.22;2.65;;;;;;;8.90;93.21;101871.63;5112488;28;20085;-71
2022/11/28 08:42:31;;;;;;;4.50;2.50;;;;;;;8.91;93.43;101877.88;5117078;28;20043;-71
2022/11/28 08:44:57;;;;;;;7.07;3.30;;;;;;;9.13;92.84;101879.09;5103457;28;20032;-71
2022/11/28 08:47:22;;;;;;;7.45;3.00;;;;;;;9.17;91.73;101884.00;5092614;28;20028;-71
2022/11/28 08:49:48;;;;;;;5.15;1.95;;;;;;;8.90;92.59;101892.28;5110293;28;20070;-71
2022/11/28 08:52:13;;;;;;;4.53;2.47;;;;;;;9.07;92.99;101882.44;5101868;28;20548;-71
2022/11/28 08:54:39;;;;;;;5.57;2.50;;;;;;;9.17;91.83;101873.25;5114415;28;20028;-71
2022/11/28 08:57:05;;;;;;;2.60;1.80;;;;;;;9.20;91.61;101890.88;5086138;28;20043;-71
2022/11/28 08:59:30;;;;;;;3.92;2.10;;;;;;;9.15;92.02;101882.47;5107993;28;20090;-71
2022/11/28 09:01:55;;;;;;;4.65;1.92;;;;;;;9.26;91.74;101884.84;5093475;28;20052;-71
2022/11/28 09:04:22;;;;;;;4.03;1.88;;;;;;;9.14;91.35;101862.00;5100936;28;20066;-71
2022/11/28 09:06:47;;;;;;;4.55;2.35;;;;;;;8.94;91.35;101864.13;5101085;28;20088;-71
2022/11/28 09:09:13;;;;;;;4.90;2.25;;;;;;;9.43;91.02;101876.81;5111309;28;20429;-71
2022/11/28 09:11:38;;;;;;;3.03;1.90;;;;;;;9.28;90.51;101874.78;5090987;28;20035;-71
2022/11/28 09:14:04;;;;;;;3.28;1.60;;;;;;;9.51;90.24;101861.56;5103924;28;20035;-71
2022/11/28 09:16:29;;;;;;;4.03;1.63;;;;;;;9.11;91.50;101862.34;5114032;28;20047;-71
2022/11/28 09:18:58;;;;;;;5.47;1.75;;;;;;;9.02;92.46;101888.31;5101684;28;20036;-71
2022/11/28 09:21:24;;;;;;;3.30;1.80;;;;;;;9.08;92.92;101873.41;5108551;28;20028;-71
2022/11/28 09:23:50;;;;;;;5.20;1.92;;;;;;;9.37;89.86;101836.19;5110322;28;20502;-71
2022/11/28 09:26:21;;;;;;;2.47;1.48;;;;;;;9.21;91.10;101873.78;5084562;28;20043;-71
2022/11/28 09:28:46;;;;;;;3.15;1.60;;;;;;;9.40;90.08;101880.66;5113890;28;21130;-71
2022/11/28 09:31:32;;;;;;;5.40;2.10;;;;;;;9.45;90.73;101878.34;5106460;28;20043;-72
2022/11/28 09:33:57;;;;;;;3.45;1.88;;;;;;;9.28;90.66;101885.53;5067903;28;20044;-71
2022/11/28 09:36:23;;;;;;;6.78;2.35;;;;;;;9.31;90.65;101874.47;5062635;28;20066;-71
2022/11/28 09:38:49;;;;;;;3.25;2.00;;;;;;;9.34;90.53;101873.31;5083768;28;20028;-71
2022/11/28 09:41:27;;;;;;;3.70;2.20;;;;;;;9.44;90.20;101878.50;5075951;28;20477;-71
2022/11/28 09:43:59;;;;;;;4.72;2.10;;;;;;;9.44;89.38;101844.44;5091637;28;20044;-71
2022/11/28 09:46:28;;;;;;;6.55;2.45;;;;;;;9.61;89.71;101880.22;5067168;28;20040;-71
2022/11/28 09:48:59;;;;;;;3.92;2.10;;;;;;;9.44;90.74;101873.13;5077959;28;20028;-71
2022/11/28 09:51:41;;;;;;;7.22;2.78;;;;;;;9.71;88.95;101891.66;5087628;28;20453;-71
2022/11/28 09:54:26;;;;;;;5.30;2.50;;;;;;;9.70;88.42;101873.84;5085409;28;20119;-71
2022/11/28 09:56:51;;;;;;;5.80;2.92;;;;;;;9.41;89.19;101869.78;5066840;28;20122;-71
2022/11/28 09:59:26;;;;;;;6.25;2.40;;;;;;;9.52;89.84;101871.31;5092068;28;20047;-71
2022/11/28 10:01:57;;;;;;;;;;;;;;;9.98;87.70;101878.88;5092475;28;20043;-71
2022/11/28 10:05:13;;;;;;;4.78;2.40;;;;;;;9.58;88.46;101864.44;5073815;28;19934;-71
2022/11/28 10:08:10;;;;;;;4.97;1.98;;;;;;;9.30;88.65;101839.69;5084831;28;20107;-71
2022/11/28 10:11:08;;;;;;;4.03;2.40;;;;;;;9.73;87.27;101867.28;5062401;28;20043;-71
2022/11/28 10:14:01;;;;;;;6.88;2.40;;;;;;;9.79;88.31;101875.50;5078709;28;20403;-72
2022/11/28 10:17:03;;;;;;;7.25;2.78;;;;;;;9.48;87.97;101853.84;5078543;28;20036;-71
2022/11/28 10:19:36;;;;;;;4.20;2.50;;;;;;;9.59;87.84;101866.09;5077701;28;20056;-71
2022/11/28 10:22:05;;;;;;;4.88;2.70;;;;;;;9.41;87.69;101834.03;5078331;28;20039;-71
2022/11/28 10:24:49;;;;;;;5.95;2.58;;;;;;;9.29;87.77;101860.34;5078293;28;20028;-71
2022/11/28 10:27:16;;;;;;;7.35;2.75;;;;;;;9.56;88.22;101863.75;5078710;28;20175;-71
2022/11/28 10:30:16;;;;;;;8.52;2.65;;;;;;;9.46;88.21;101866.59;5086875;28;20047;-71
2022/11/28 10:32:51;;;;;;;7.68;2.63;;;;;;;9.38;87.84;101832.50;5075330;28;20036;-72
2022/11/28 10:35:16;;;;;;;;;;;;;;;9.67;86.13;101859.88;5085901;28;20116;-71
2022/11/28 10:37:42;;;;;;;3.78;2.50;;;;;;;9.43;87.60;101852.66;5062417;28;19959;-72
2022/11/28 10:40:37;;;;;;;7.50;2.95;;;;;;;9.79;86.10;101854.00;5072352;28;20068;-72
2022/11/28 10:43:15;;;;;;;6.43;2.85;;;;;;;9.32;87.15;101843.91;5101785;27;20050;-71
2022/11/28 10:46:15;;;;;;;5.95;3.00;;;;;;;9.82;86.16;101855.53;5109228;28;20024;-72
2022/11/28 10:49:04;;;;;;;8.48;2.90;;;;;;;9.62;84.33;101830.84;5117053;28;20024;-71
2022/11/28 10:51:58;;;;;;;4.10;2.60;;;;;;;9.81;84.50;101856.53;5108032;28;20028;-71
2022/11/28 10:55:02;;;;;;;6.53;2.92;;;;;;;9.41;84.79;101840.22;5104052;28;20028;-71
2022/11/28 10:57:58;;;;;;;6.53;3.15;;;;;;;9.73;84.39;101861.91;5111057;28;20048;-71
2022/11/28 11:00:26;;;;;;;8.45;3.80;;;;;;;9.92;84.33;101844.59;5117535;28;20473;-71
2022/11/28 11:02:54;;;;;;;6.05;3.70;;;;;;;9.81;84.74;101857.38;5103384;28;20055;-71
2022/11/28 11:05:31;;;;;;;8.15;2.80;;;;;;;9.47;85.32;101837.88;5112735;28;20032;-71
2022/11/28 11:08:09;;;;;;;6.50;2.88;;;;;;;9.78;84.67;101852.34;5112350;28;20031;-71
2022/11/28 11:10:48;;;;;;;7.18;3.00;;;;;;;9.56;84.11;101818.91;5102295;28;20039;-72
2022/11/28 11:13:22;;;;;;;5.18;3.00;;;;;;;9.71;83.97;101861.25;5112785;28;20057;-71
2022/11/28 11:15:59;;;;;;;6.25;3.20;;;;;;;9.71;83.97;101854.03;5112637;28;20032;-72
2022/11/28 11:18:49;;;;;;;9.77;2.88;;;;;;;9.67;82.44;101854.50;5104033;28;20020;-72
2022/11/28 11:21:16;;;;;;;5.30;3.00;;;;;;;9.72;84.11;101863.75;5111941;28;20048;-72
2022/11/28 11:23:43;;;;;;;6.28;2.88;;;;;;;9.67;83.42;101838.38;5110135;28;20034;-72
2022/11/28 11:26:21;;;;;;;9.05;2.90;;;;;;;9.65;81.68;101860.91;5104409;28;20040;-71
2022/11/28 11:28:50;;;;;;;6.68;2.88;;;;;;;9.54;82.24;101853.19;5115135;28;20024;-71
2022/11/28 11:31:18;;;;;;;5.50;2.70;;;;;;;9.95;82.62;101858.53;5106105;28;20027;-71
2022/11/28 11:33:44;;;;;;;5.30;2.85;;;;;;;9.59;81.32;101852.66;5108289;28;20488;-71
2022/11/28 11:36:39;;;;;;;6.13;2.50;;;;;;;9.71;81.40;101858.56;5113116;28;20023;-71
2022/11/28 11:39:14;;;;;;;4.72;2.78;;;;;;;10.04;80.90;101859.38;5080752;28;20047;-71
2022/11/28 11:41:42;;;;;;;4.50;2.72;;;;;;;9.93;79.95;101851.66;5107513;28;20326;-71
2022/11/28 11:44:13;;;;;;;4.90;2.70;;;;;;;9.88;81.12;101863.75;5113937;28;20570;-71
2022/11/28 11:47:01;;;;;;;5.45;2.50;;;;;;;9.98;80.08;101841.25;5101412;28;20035;-71
2022/11/28 11:49:42;;;;;;;7.78;3.00;;;;;;;9.80;77.90;101847.66;5110815;28;20024;-72